CPV1026 SBPA-SBKP
Flight info
| Callsign | CPV1026 |
|---|---|
| Flight time | 1h 18m |
| Altitude | 33000 |
| Route | PENSO UZ132 EDRAT |
| Aircraft | B738/M-SDE3/L |
Departure
| Time | 2026-05-09 13:01 |
|---|---|
| Airport | Porto Alegre-Salgado Filho International Airport (SBPA) |
Arrival
| Time | 2026-05-09 14:19 |
|---|---|
| Airport | Viracopos International Airport (SBKP) |
| Time | Latitude | Longitude | Altitude | Speed | Heading |
|---|---|---|---|---|---|
| 2026-05-09 12:38 | -29.99076 | -51.17766 | 24 ft | 0 kts | 351° |
| 2026-05-09 12:51 | -29.99084 | -51.17764 | 27 ft | 4 kts | 351° |
| 2026-05-09 12:52 | -29.99111 | -51.17760 | 25 ft | 4 kts | 352° |
| 2026-05-09 12:52 | -29.99137 | -51.17757 | 28 ft | 3 kts | 358° |
| 2026-05-09 12:52 | -29.99152 | -51.17758 | 24 ft | 2 kts | 20° |
| 2026-05-09 12:52 | -29.99161 | -51.17765 | 29 ft | 2 kts | 70° |
| 2026-05-09 12:53 | -29.99163 | -51.17778 | 29 ft | 2 kts | 91° |
| 2026-05-09 12:53 | -29.99163 | -51.17790 | 28 ft | 2 kts | 95° |
| 2026-05-09 12:53 | -29.99162 | -51.17799 | 28 ft | 0 kts | 96° |
| 2026-05-09 12:54 | -29.99163 | -51.17781 | 28 ft | 5 kts | 94° |
| 2026-05-09 12:54 | -29.99186 | -51.17718 | 28 ft | 11 kts | 141° |
| 2026-05-09 12:55 | -29.99254 | -51.17659 | 25 ft | 13 kts | 111° |
| 2026-05-09 12:55 | -29.99261 | -51.17556 | 25 ft | 13 kts | 89° |
| 2026-05-09 12:55 | -29.99262 | -51.17455 | 30 ft | 12 kts | 92° |
| 2026-05-09 12:55 | -29.99266 | -51.17357 | 27 ft | 12 kts | 91° |
| 2026-05-09 12:56 | -29.99269 | -51.17262 | 27 ft | 12 kts | 91° |
| 2026-05-09 12:56 | -29.99271 | -51.17169 | 28 ft | 11 kts | 91° |
| 2026-05-09 12:56 | -29.99273 | -51.17078 | 29 ft | 11 kts | 91° |
| 2026-05-09 12:56 | -29.99275 | -51.16990 | 30 ft | 11 kts | 91° |
| 2026-05-09 12:57 | -29.99277 | -51.16905 | 30 ft | 11 kts | 91° |
| 2026-05-09 12:57 | -29.99275 | -51.16822 | 31 ft | 10 kts | 87° |
| 2026-05-09 12:57 | -29.99277 | -51.16741 | 32 ft | 10 kts | 93° |
| 2026-05-09 12:57 | -29.99280 | -51.16663 | 32 ft | 10 kts | 92° |
| 2026-05-09 12:58 | -29.99283 | -51.16587 | 33 ft | 9 kts | 91° |
| 2026-05-09 12:58 | -29.99283 | -51.16512 | 34 ft | 9 kts | 90° |
| 2026-05-09 12:58 | -29.99283 | -51.16439 | 34 ft | 9 kts | 89° |
| 2026-05-09 12:58 | -29.99283 | -51.16364 | 35 ft | 12 kts | 90° |
| 2026-05-09 12:59 | -29.99304 | -51.16248 | 36 ft | 8 kts | 131° |
| 2026-05-09 12:59 | -29.99360 | -51.16231 | 36 ft | 8 kts | 175° |
| 2026-05-09 12:59 | -29.99418 | -51.16229 | 37 ft | 8 kts | 181° |
| 2026-05-09 12:59 | -29.99466 | -51.16255 | 38 ft | 8 kts | 229° |
| 2026-05-09 13:00 | -29.99477 | -51.16318 | 37 ft | 8 kts | 272° |
| 2026-05-09 13:00 | -29.99472 | -51.16547 | 33 ft | 65 kts | 271° |
| 2026-05-09 13:00 | -29.99456 | -51.17361 | 26 ft | 135 kts | 270° |
| 2026-05-09 13:00 | -29.99498 | -51.18613 | 377 ft | 163 kts | 265° |
| 2026-05-09 13:01 | -29.99794 | -51.19841 | 1501 ft | 149 kts | 255° |
| 2026-05-09 13:01 | -29.99785 | -51.21021 | 2277 ft | 163 kts | 294° |
| 2026-05-09 13:01 | -29.99081 | -51.22207 | 2703 ft | 189 kts | 301° |
| 2026-05-09 13:01 | -29.98739 | -51.23650 | 3304 ft | 191 kts | 262° |
| 2026-05-09 13:02 | -29.98963 | -51.25165 | 3979 ft | 197 kts | 263° |
| 2026-05-09 13:02 | -29.98866 | -51.26741 | 4818 ft | 204 kts | 289° |
| 2026-05-09 13:02 | -29.97853 | -51.27967 | 5475 ft | 232 kts | 327° |
| 2026-05-09 13:02 | -29.96132 | -51.28320 | 5757 ft | 272 kts | 358° |
| 2026-05-09 13:03 | -29.94208 | -51.28161 | 6488 ft | 279 kts | 358° |
| 2026-05-09 13:03 | -29.92270 | -51.28050 | 7373 ft | 278 kts | 356° |
| 2026-05-09 13:03 | -29.90337 | -51.27952 | 8291 ft | 277 kts | 356° |
| 2026-05-09 13:03 | -29.88399 | -51.27862 | 9145 ft | 279 kts | 355° |
| 2026-05-09 13:04 | -29.86461 | -51.27775 | 10065 ft | 278 kts | 354° |
| 2026-05-09 13:04 | -29.84520 | -51.27697 | 10608 ft | 292 kts | 354° |
| 2026-05-09 13:04 | -29.82398 | -51.27621 | 10768 ft | 317 kts | 355° |
| 2026-05-09 13:04 | -29.80114 | -51.27532 | 10966 ft | 339 kts | 355° |
| 2026-05-09 13:05 | -29.77713 | -51.27430 | 11417 ft | 350 kts | 356° |
| 2026-05-09 13:05 | -29.75276 | -51.27324 | 12198 ft | 350 kts | 356° |
| 2026-05-09 13:05 | -29.72841 | -51.27221 | 13059 ft | 350 kts | 356° |
| 2026-05-09 13:05 | -29.70408 | -51.27120 | 13825 ft | 351 kts | 356° |
| 2026-05-09 13:06 | -29.67962 | -51.26727 | 14467 ft | 362 kts | 10° |
| 2026-05-09 13:06 | -29.65568 | -51.25780 | 15142 ft | 365 kts | 12° |
| 2026-05-09 13:06 | -29.63170 | -51.24817 | 15770 ft | 366 kts | 12° |
| 2026-05-09 13:06 | -29.60753 | -51.23868 | 16415 ft | 367 kts | 11° |
| 2026-05-09 13:07 | -29.58325 | -51.22931 | 17018 ft | 369 kts | 11° |
| 2026-05-09 13:07 | -29.55870 | -51.21992 | 17587 ft | 372 kts | 11° |
| 2026-05-09 13:07 | -29.53410 | -51.21055 | 18229 ft | 373 kts | 10° |
| 2026-05-09 13:07 | -29.50941 | -51.20116 | 18761 ft | 375 kts | 10° |
| 2026-05-09 13:08 | -29.48452 | -51.19173 | 19239 ft | 377 kts | 9° |
| 2026-05-09 13:08 | -29.45986 | -51.18238 | 19684 ft | 380 kts | 9° |
| 2026-05-09 13:08 | -29.43471 | -51.17286 | 20175 ft | 382 kts | 9° |
| 2026-05-09 13:08 | -29.40942 | -51.16329 | 20672 ft | 384 kts | 9° |
| 2026-05-09 13:09 | -29.38393 | -51.15364 | 21133 ft | 387 kts | 8° |
| 2026-05-09 13:09 | -29.35829 | -51.14391 | 21574 ft | 389 kts | 8° |
| 2026-05-09 13:09 | -29.33246 | -51.13413 | 21998 ft | 392 kts | 8° |
| 2026-05-09 13:09 | -29.30638 | -51.12429 | 22262 ft | 397 kts | 8° |
| 2026-05-09 13:10 | -29.28013 | -51.11436 | 22825 ft | 395 kts | 7° |
| 2026-05-09 13:10 | -29.25403 | -51.10448 | 23261 ft | 397 kts | 7° |
| 2026-05-09 13:10 | -29.22765 | -51.09456 | 23523 ft | 401 kts | 8° |
| 2026-05-09 13:10 | -29.20124 | -51.08558 | 23859 ft | 399 kts | 3° |
| 2026-05-09 13:11 | -29.17419 | -51.07883 | 24225 ft | 397 kts | 0° |
| 2026-05-09 13:11 | -29.14700 | -51.07301 | 24611 ft | 397 kts | 360° |
| 2026-05-09 13:11 | -29.11970 | -51.06731 | 24960 ft | 399 kts | 360° |
| 2026-05-09 13:11 | -29.09237 | -51.06148 | 25304 ft | 400 kts | 0° |
| 2026-05-09 13:12 | -29.06484 | -51.05542 | 25606 ft | 403 kts | 0° |
| 2026-05-09 13:12 | -29.03722 | -51.04920 | 25893 ft | 406 kts | 0° |
| 2026-05-09 13:12 | -29.00943 | -51.04290 | 26187 ft | 408 kts | 1° |
| 2026-05-09 13:12 | -28.98154 | -51.03651 | 26493 ft | 409 kts | 1° |
| 2026-05-09 13:13 | -28.95363 | -51.03007 | 26782 ft | 411 kts | 1° |
| 2026-05-09 13:13 | -28.92585 | -51.02364 | 27078 ft | 412 kts | 1° |
| 2026-05-09 13:13 | -28.89762 | -51.01710 | 27352 ft | 414 kts | 1° |
| 2026-05-09 13:13 | -28.86932 | -51.01054 | 27643 ft | 415 kts | 1° |
| 2026-05-09 13:14 | -28.84095 | -51.00400 | 27939 ft | 417 kts | 1° |
| 2026-05-09 13:14 | -28.81241 | -50.99741 | 28235 ft | 418 kts | 0° |
| 2026-05-09 13:16 | -28.61433 | -50.95194 | 30652 ft | 411 kts | 1° |
| 2026-05-09 13:16 | -28.58632 | -50.94548 | 31048 ft | 409 kts | 1° |
| 2026-05-09 13:16 | -28.55845 | -50.93906 | 31384 ft | 407 kts | 1° |
| 2026-05-09 13:16 | -28.53067 | -50.93269 | 31673 ft | 407 kts | 1° |
| 2026-05-09 13:17 | -28.50282 | -50.92632 | 31968 ft | 406 kts | 0° |
| 2026-05-09 13:17 | -28.47519 | -50.91999 | 32280 ft | 405 kts | 1° |
| 2026-05-09 13:17 | -28.44755 | -50.91366 | 32530 ft | 406 kts | 1° |
| 2026-05-09 13:17 | -28.41984 | -50.90733 | 32764 ft | 406 kts | 1° |
| 2026-05-09 13:18 | -28.39217 | -50.90100 | 33040 ft | 406 kts | 1° |
| 2026-05-09 13:18 | -28.33699 | -50.88839 | 33147 ft | 407 kts | 1° |
| 2026-05-09 13:19 | -28.28157 | -50.87570 | 33127 ft | 405 kts | 1° |
| 2026-05-09 13:19 | -28.22633 | -50.86308 | 33132 ft | 404 kts | 1° |
| 2026-05-09 13:20 | -28.17112 | -50.85049 | 33131 ft | 404 kts | 1° |
| 2026-05-09 13:20 | -28.11599 | -50.83791 | 33127 ft | 405 kts | 1° |
| 2026-05-09 13:21 | -28.06078 | -50.82535 | 33136 ft | 405 kts | 1° |
| 2026-05-09 13:21 | -28.03335 | -50.81574 | 33112 ft | 424 kts | 15° |
| 2026-05-09 13:21 | -28.00754 | -50.79964 | 33158 ft | 430 kts | 18° |
| 2026-05-09 13:22 | -27.95504 | -50.76739 | 33130 ft | 429 kts | 17° |
| 2026-05-09 13:22 | -27.90219 | -50.73578 | 33125 ft | 429 kts | 16° |
| 2026-05-09 13:23 | -27.76997 | -50.65691 | 33123 ft | 430 kts | 17° |
| 2026-05-09 13:24 | -27.71704 | -50.62536 | 33124 ft | 430 kts | 17° |
| 2026-05-09 13:24 | -27.66441 | -50.59400 | 33122 ft | 430 kts | 17° |
| 2026-05-09 13:25 | -27.61145 | -50.56249 | 33131 ft | 430 kts | 17° |
| 2026-05-09 13:26 | -27.53199 | -50.51526 | 33124 ft | 431 kts | 17° |
| 2026-05-09 13:26 | -27.47891 | -50.48374 | 33120 ft | 431 kts | 17° |
| 2026-05-09 13:27 | -27.42579 | -50.45227 | 33127 ft | 432 kts | 17° |
| 2026-05-09 13:27 | -27.37266 | -50.42040 | 33121 ft | 433 kts | 17° |
| 2026-05-09 13:28 | -27.31946 | -50.38839 | 33120 ft | 434 kts | 17° |
| 2026-05-09 13:28 | -27.26648 | -50.35657 | 33114 ft | 434 kts | 17° |
| 2026-05-09 13:29 | -27.21315 | -50.32465 | 33107 ft | 434 kts | 17° |
| 2026-05-09 13:29 | -27.15963 | -50.29301 | 33117 ft | 434 kts | 17° |
| 2026-05-09 13:30 | -27.10616 | -50.26152 | 33121 ft | 433 kts | 17° |
| 2026-05-09 13:30 | -27.05271 | -50.23011 | 33109 ft | 434 kts | 17° |
| 2026-05-09 13:31 | -26.99908 | -50.19857 | 33104 ft | 434 kts | 17° |
| 2026-05-09 13:31 | -26.94554 | -50.16709 | 33105 ft | 435 kts | 18° |
| 2026-05-09 13:32 | -26.89223 | -50.13576 | 33119 ft | 436 kts | 18° |
| 2026-05-09 13:32 | -26.81159 | -50.08843 | 33103 ft | 436 kts | 18° |
| 2026-05-09 13:33 | -26.75771 | -50.05685 | 33101 ft | 437 kts | 18° |
| 2026-05-09 13:33 | -26.70375 | -50.02523 | 33105 ft | 438 kts | 18° |
| 2026-05-09 13:34 | -26.64971 | -49.99364 | 33113 ft | 438 kts | 18° |
| 2026-05-09 13:34 | -26.59591 | -49.96222 | 33104 ft | 439 kts | 19° |
| 2026-05-09 13:35 | -26.54173 | -49.93060 | 33102 ft | 439 kts | 19° |
| 2026-05-09 13:35 | -26.48764 | -49.89904 | 33085 ft | 439 kts | 19° |
| 2026-05-09 13:36 | -26.43343 | -49.86747 | 33102 ft | 439 kts | 19° |
| 2026-05-09 13:36 | -26.38837 | -49.84122 | 33107 ft | 439 kts | 19° |
| 2026-05-09 13:37 | -26.33421 | -49.80974 | 33105 ft | 439 kts | 19° |
| 2026-05-09 13:37 | -26.27988 | -49.77823 | 33101 ft | 440 kts | 19° |
| 2026-05-09 13:38 | -26.22558 | -49.74677 | 33096 ft | 440 kts | 19° |
| 2026-05-09 13:38 | -26.17163 | -49.71549 | 33099 ft | 440 kts | 19° |
| 2026-05-09 13:39 | -26.11719 | -49.68396 | 33100 ft | 441 kts | 19° |
| 2026-05-09 13:39 | -26.06262 | -49.65238 | 33093 ft | 443 kts | 19° |
| 2026-05-09 13:40 | -26.00791 | -49.62073 | 33095 ft | 444 kts | 19° |
| 2026-05-09 13:40 | -25.95304 | -49.58904 | 33090 ft | 445 kts | 19° |
| 2026-05-09 13:41 | -25.89796 | -49.55727 | 33081 ft | 446 kts | 19° |
| 2026-05-09 13:41 | -25.84273 | -49.52543 | 33080 ft | 448 kts | 19° |
| 2026-05-09 13:42 | -25.78731 | -49.49352 | 33072 ft | 449 kts | 19° |
| 2026-05-09 13:42 | -25.73175 | -49.46155 | 33073 ft | 450 kts | 19° |
| 2026-05-09 13:43 | -25.67638 | -49.42973 | 33079 ft | 451 kts | 19° |
| 2026-05-09 13:43 | -25.62058 | -49.39767 | 33079 ft | 452 kts | 20° |
| 2026-05-09 13:44 | -25.56470 | -49.36560 | 33089 ft | 453 kts | 20° |
| 2026-05-09 13:44 | -25.50867 | -49.33354 | 33090 ft | 453 kts | 20° |
| 2026-05-09 13:45 | -25.45255 | -49.30152 | 33101 ft | 453 kts | 20° |
| 2026-05-09 13:45 | -25.39647 | -49.26955 | 33099 ft | 453 kts | 20° |
| 2026-05-09 13:46 | -25.34043 | -49.23761 | 33101 ft | 453 kts | 20° |
| 2026-05-09 13:46 | -25.28446 | -49.20571 | 33095 ft | 452 kts | 20° |
| 2026-05-09 13:47 | -25.22888 | -49.17402 | 33084 ft | 451 kts | 20° |
| 2026-05-09 13:47 | -25.17314 | -49.14225 | 33069 ft | 451 kts | 20° |
| 2026-05-09 13:48 | -25.11745 | -49.11058 | 33067 ft | 450 kts | 20° |
| 2026-05-09 13:48 | -25.06163 | -49.07884 | 33063 ft | 450 kts | 20° |
| 2026-05-09 13:49 | -25.00586 | -49.04709 | 33063 ft | 451 kts | 20° |
| 2026-05-09 13:49 | -24.94995 | -49.01528 | 33051 ft | 452 kts | 20° |
| 2026-05-09 13:50 | -24.89401 | -48.98342 | 33052 ft | 453 kts | 20° |
| 2026-05-09 13:50 | -24.83839 | -48.95184 | 33067 ft | 453 kts | 20° |
| 2026-05-09 13:51 | -24.78196 | -48.91993 | 33042 ft | 455 kts | 20° |
| 2026-05-09 13:51 | -24.72564 | -48.88826 | 33046 ft | 455 kts | 20° |
| 2026-05-09 13:52 | -24.66923 | -48.85656 | 33062 ft | 455 kts | 20° |
| 2026-05-09 13:52 | -24.61312 | -48.82501 | 33058 ft | 455 kts | 20° |
| 2026-05-09 13:53 | -24.55661 | -48.79317 | 33052 ft | 455 kts | 20° |
| 2026-05-09 13:53 | -24.50040 | -48.76100 | 33049 ft | 457 kts | 23° |
| 2026-05-09 13:54 | -24.44610 | -48.72419 | 33056 ft | 460 kts | 26° |
| 2026-05-09 13:54 | -24.39229 | -48.68603 | 33050 ft | 459 kts | 26° |
| 2026-05-09 13:55 | -24.33840 | -48.64838 | 33061 ft | 458 kts | 25° |
| 2026-05-09 13:55 | -24.28473 | -48.61141 | 33058 ft | 458 kts | 25° |
| 2026-05-09 13:56 | -24.23071 | -48.57435 | 33058 ft | 458 kts | 25° |
| 2026-05-09 13:56 | -24.20368 | -48.55583 | 32817 ft | 461 kts | 25° |
| 2026-05-09 13:56 | -24.17630 | -48.53710 | 32222 ft | 462 kts | 25° |
| 2026-05-09 13:57 | -24.14905 | -48.51842 | 31533 ft | 462 kts | 25° |
| 2026-05-09 13:57 | -24.12180 | -48.49974 | 30835 ft | 462 kts | 26° |
| 2026-05-09 13:57 | -24.09462 | -48.48111 | 30261 ft | 459 kts | 26° |
| 2026-05-09 13:57 | -24.06765 | -48.46263 | 29666 ft | 455 kts | 26° |
| 2026-05-09 13:58 | -24.04092 | -48.44432 | 29113 ft | 450 kts | 26° |
| 2026-05-09 13:58 | -24.01451 | -48.42625 | 28557 ft | 445 kts | 26° |
| 2026-05-09 13:58 | -23.98835 | -48.40837 | 28043 ft | 440 kts | 26° |
| 2026-05-09 13:58 | -23.96240 | -48.39065 | 27518 ft | 436 kts | 26° |
| 2026-05-09 13:59 | -23.93706 | -48.37336 | 27020 ft | 432 kts | 26° |
| 2026-05-09 13:59 | -23.91165 | -48.35602 | 26510 ft | 428 kts | 26° |
| 2026-05-09 13:59 | -23.88648 | -48.33886 | 26012 ft | 425 kts | 26° |
| 2026-05-09 13:59 | -23.86176 | -48.32126 | 25512 ft | 426 kts | 31° |
| 2026-05-09 14:00 | -23.83958 | -48.29946 | 25022 ft | 431 kts | 41° |
| 2026-05-09 14:00 | -23.83286 | -48.29120 | 24866 ft | 432 kts | 44° |
| 2026-05-09 14:00 | -23.80539 | -48.24530 | 24058 ft | 436 kts | 54° |
| 2026-05-09 14:00 | -23.79047 | -48.21651 | 23527 ft | 435 kts | 55° |
| 2026-05-09 14:01 | -23.77560 | -48.18788 | 22965 ft | 432 kts | 54° |
| 2026-05-09 14:01 | -23.76073 | -48.15944 | 22458 ft | 429 kts | 54° |
| 2026-05-09 14:01 | -23.74592 | -48.13134 | 21948 ft | 425 kts | 54° |
| 2026-05-09 14:01 | -23.73117 | -48.10352 | 21448 ft | 422 kts | 54° |
| 2026-05-09 14:02 | -23.71647 | -48.07591 | 20959 ft | 418 kts | 54° |
| 2026-05-09 14:02 | -23.70190 | -48.04861 | 20471 ft | 415 kts | 54° |
| 2026-05-09 14:02 | -23.68759 | -48.02183 | 20006 ft | 412 kts | 54° |
| 2026-05-09 14:02 | -23.67321 | -47.99492 | 19534 ft | 409 kts | 54° |
| 2026-05-09 14:03 | -23.65890 | -47.96818 | 19041 ft | 407 kts | 54° |
| 2026-05-09 14:03 | -23.64470 | -47.94164 | 18564 ft | 404 kts | 54° |
| 2026-05-09 14:03 | -23.63054 | -47.91518 | 18056 ft | 402 kts | 54° |
| 2026-05-09 14:03 | -23.61651 | -47.88899 | 17543 ft | 398 kts | 54° |
| 2026-05-09 14:04 | -23.60260 | -47.86301 | 17058 ft | 395 kts | 55° |
| 2026-05-09 14:04 | -23.58882 | -47.83730 | 16584 ft | 392 kts | 55° |
| 2026-05-09 14:04 | -23.57510 | -47.81172 | 16119 ft | 389 kts | 55° |
| 2026-05-09 14:04 | -23.56147 | -47.78632 | 15653 ft | 386 kts | 55° |
| 2026-05-09 14:05 | -23.54795 | -47.76113 | 15211 ft | 383 kts | 56° |
| 2026-05-09 14:05 | -23.53453 | -47.73614 | 14737 ft | 382 kts | 56° |
| 2026-05-09 14:05 | -23.52116 | -47.71126 | 14290 ft | 380 kts | 56° |
| 2026-05-09 14:05 | -23.50780 | -47.68641 | 13812 ft | 379 kts | 56° |
| 2026-05-09 14:06 | -23.49446 | -47.66161 | 13315 ft | 377 kts | 56° |
| 2026-05-09 14:06 | -23.48127 | -47.63707 | 12861 ft | 374 kts | 56° |
| 2026-05-09 14:06 | -23.46829 | -47.61289 | 12378 ft | 364 kts | 56° |
| 2026-05-09 14:06 | -23.45576 | -47.58959 | 12145 ft | 346 kts | 56° |
| 2026-05-09 14:07 | -23.44392 | -47.56762 | 11910 ft | 339 kts | 55° |
| 2026-05-09 14:07 | -23.43185 | -47.54554 | 11505 ft | 337 kts | 54° |
| 2026-05-09 14:07 | -23.42009 | -47.52383 | 11096 ft | 329 kts | 54° |
| 2026-05-09 14:07 | -23.40870 | -47.50263 | 10707 ft | 320 kts | 54° |
| 2026-05-09 14:08 | -23.39759 | -47.48193 | 10324 ft | 312 kts | 54° |
| 2026-05-09 14:08 | -23.38676 | -47.46183 | 9984 ft | 303 kts | 54° |
| 2026-05-09 14:08 | -23.37648 | -47.44269 | 9854 ft | 287 kts | 53° |
| 2026-05-09 14:08 | -23.36605 | -47.42350 | 9305 ft | 296 kts | 53° |
| 2026-05-09 14:09 | -23.35559 | -47.40416 | 9074 ft | 291 kts | 53° |
| 2026-05-09 14:09 | -23.34553 | -47.38553 | 8891 ft | 286 kts | 53° |
| 2026-05-09 14:09 | -23.33558 | -47.36712 | 8790 ft | 277 kts | 53° |
| 2026-05-09 14:09 | -23.32586 | -47.34920 | 8709 ft | 273 kts | 53° |
| 2026-05-09 14:10 | -23.30659 | -47.31359 | 8526 ft | 273 kts | 53° |
| 2026-05-09 14:10 | -23.29694 | -47.29573 | 8435 ft | 275 kts | 53° |
| 2026-05-09 14:10 | -23.28720 | -47.27771 | 8357 ft | 278 kts | 53° |
| 2026-05-09 14:11 | -23.27736 | -47.25954 | 8254 ft | 278 kts | 53° |
| 2026-05-09 14:11 | -23.26756 | -47.24148 | 8161 ft | 276 kts | 53° |
| 2026-05-09 14:11 | -23.25779 | -47.22350 | 8066 ft | 276 kts | 53° |
| 2026-05-09 14:11 | -23.24799 | -47.20546 | 7893 ft | 278 kts | 53° |
| 2026-05-09 14:12 | -23.23816 | -47.18723 | 7727 ft | 279 kts | 53° |
| 2026-05-09 14:12 | -23.22837 | -47.16912 | 7560 ft | 277 kts | 53° |
| 2026-05-09 14:12 | -23.21858 | -47.15102 | 7291 ft | 278 kts | 54° |
| 2026-05-09 14:12 | -23.20884 | -47.13302 | 7095 ft | 274 kts | 53° |
| 2026-05-09 14:13 | -23.19934 | -47.11557 | 6922 ft | 270 kts | 53° |
| 2026-05-09 14:14 | -23.13110 | -46.99982 | 5296 ft | 228 kts | 1° |
| 2026-05-09 14:15 | -23.11680 | -47.00356 | 5185 ft | 205 kts | 326° |
| 2026-05-09 14:15 | -23.10697 | -47.01393 | 5109 ft | 191 kts | 315° |
| 2026-05-09 14:15 | -23.09825 | -47.02427 | 4999 ft | 179 kts | 316° |
| 2026-05-09 14:15 | -23.08976 | -47.03433 | 4494 ft | 189 kts | 315° |
| 2026-05-09 14:16 | -23.08087 | -47.04491 | 4125 ft | 187 kts | 315° |
| 2026-05-09 14:16 | -23.07259 | -47.05547 | 3862 ft | 178 kts | 313° |
| 2026-05-09 14:16 | -23.06458 | -47.06519 | 3633 ft | 162 kts | 322° |
| 2026-05-09 14:16 | -23.05666 | -47.07304 | 3415 ft | 147 kts | 320° |
| 2026-05-09 14:17 | -23.04983 | -47.08096 | 3235 ft | 141 kts | 321° |
| 2026-05-09 14:17 | -23.04276 | -47.08865 | 3037 ft | 147 kts | 316° |
| 2026-05-09 14:17 | -23.03613 | -47.09674 | 2838 ft | 144 kts | 314° |
| 2026-05-09 14:17 | -23.02949 | -47.10507 | 2640 ft | 146 kts | 315° |
| 2026-05-09 14:18 | -23.02307 | -47.11357 | 2407 ft | 145 kts | 309° |
| 2026-05-09 14:18 | -23.01681 | -47.12197 | 2237 ft | 144 kts | 309° |
| 2026-05-09 14:18 | -23.01033 | -47.13042 | 2153 ft | 147 kts | 307° |
| 2026-05-09 14:18 | -23.00468 | -47.13825 | 2154 ft | 101 kts | 306° |
| 2026-05-09 14:19 | -23.00214 | -47.14189 | 2154 ft | 40 kts | 308° |
| 2026-05-09 14:19 | -23.00056 | -47.14410 | 2156 ft | 35 kts | 309° |
| 2026-05-09 14:19 | -22.99971 | -47.14551 | 2154 ft | 17 kts | 282° |
| 2026-05-09 14:19 | -22.99996 | -47.14652 | 2153 ft | 13 kts | 225° |
| 2026-05-09 14:20 | -23.00044 | -47.14705 | 2153 ft | 3 kts | 248° |
| 2026-05-09 14:20 | -23.00037 | -47.14744 | 2156 ft | 10 kts | 300° |
| 2026-05-09 14:20 | -23.00016 | -47.14822 | 2153 ft | 11 kts | 269° |
| 2026-05-09 14:21 | -23.00107 | -47.14942 | 2156 ft | 10 kts | 218° |
| 2026-05-09 14:21 | -23.00165 | -47.14986 | 2156 ft | 10 kts | 198° |
| 2026-05-09 14:21 | -23.00224 | -47.14956 | 2153 ft | 10 kts | 146° |
| 2026-05-09 14:21 | -23.00281 | -47.14932 | 2154 ft | 9 kts | 188° |
| 2026-05-09 14:22 | -23.00312 | -47.14949 | 2156 ft | 4 kts | 216° |
| 2026-05-09 14:22 | -23.00326 | -47.14960 | 2156 ft | 0 kts | 215° |